sensor_id;sensor_type;location;lat;lon;timestamp;temperature;humidity
27224;DHT22;14965;50.660;13.226;2023-03-23T00:00:08;11.20;99.90
27224;DHT22;14965;50.660;13.226;2023-03-23T00:02:34;11.20;99.90
27224;DHT22;14965;50.660;13.226;2023-03-23T00:05:01;11.20;99.90
27224;DHT22;14965;50.660;13.226;2023-03-23T00:07:26;11.20;99.90
27224;DHT22;14965;50.660;13.226;2023-03-23T00:09:55;11.20;99.90
27224;DHT22;14965;50.660;13.226;2023-03-23T00:12:24;11.20;99.90
27224;DHT22;14965;50.660;13.226;2023-03-23T00:14:52;11.20;99.90
27224;DHT22;14965;50.660;13.226;2023-03-23T00:17:17;11.10;99.90
27224;DHT22;14965;50.660;13.226;2023-03-23T00:19:44;11.20;99.90
27224;DHT22;14965;50.660;13.226;2023-03-23T00:22:10;11.20;99.90
27224;DHT22;14965;50.660;13.226;2023-03-23T00:24:36;11.10;99.90
27224;DHT22;14965;50.660;13.226;2023-03-23T00:27:02;11.20;99.90
27224;DHT22;14965;50.660;13.226;2023-03-23T00:29:29;11.20;99.90
27224;DHT22;14965;50.660;13.226;2023-03-23T00:31:55;11.20;99.90
27224;DHT22;14965;50.660;13.226;2023-03-23T00:34:22;11.10;99.90
27224;DHT22;14965;50.660;13.226;2023-03-23T00:36:51;11.10;99.90
27224;DHT22;14965;50.660;13.226;2023-03-23T00:39:18;11.10;99.90
27224;DHT22;14965;50.660;13.226;2023-03-23T00:41:46;11.20;99.90
27224;DHT22;14965;50.660;13.226;2023-03-23T00:44:14;11.20;99.90
27224;DHT22;14965;50.660;13.226;2023-03-23T00:46:41;11.20;99.90
27224;DHT22;14965;50.660;13.226;2023-03-23T00:49:07;11.20;99.90
27224;DHT22;14965;50.660;13.226;2023-03-23T00:51:33;11.20;99.90
27224;DHT22;14965;50.660;13.226;2023-03-23T00:53:58;11.30;99.90
27224;DHT22;14965;50.660;13.226;2023-03-23T00:56:24;11.30;99.90
27224;DHT22;14965;50.660;13.226;2023-03-23T00:58:50;11.30;99.90
27224;DHT22;14965;50.660;13.226;2023-03-23T01:01:16;11.30;99.90
27224;DHT22;14965;50.660;13.226;2023-03-23T01:03:43;11.40;99.90
27224;DHT22;14965;50.660;13.226;2023-03-23T01:06:10;11.30;99.90
27224;DHT22;14965;50.660;13.226;2023-03-23T01:08:36;11.30;99.90
27224;DHT22;14965;50.660;13.226;2023-03-23T01:11:05;11.40;99.90
27224;DHT22;14965;50.660;13.226;2023-03-23T01:13:32;11.30;99.90
27224;DHT22;14965;50.660;13.226;2023-03-23T01:15:58;11.30;99.90
27224;DHT22;14965;50.660;13.226;2023-03-23T01:18:24;11.30;99.90
27224;DHT22;14965;50.660;13.226;2023-03-23T01:20:52;11.30;99.90
27224;DHT22;14965;50.660;13.226;2023-03-23T01:23:18;11.30;99.90
27224;DHT22;14965;50.660;13.226;2023-03-23T01:25:44;11.30;99.90
27224;DHT22;14965;50.660;13.226;2023-03-23T01:28:10;11.40;99.90
27224;DHT22;14965;50.660;13.226;2023-03-23T01:30:36;11.40;99.90
27224;DHT22;14965;50.660;13.226;2023-03-23T01:33:02;11.40;99.90
27224;DHT22;14965;50.660;13.226;2023-03-23T01:35:28;11.40;99.90
27224;DHT22;14965;50.660;13.226;2023-03-23T01:37:55;11.50;99.90
27224;DHT22;14965;50.660;13.226;2023-03-23T01:40:21;11.50;99.90
27224;DHT22;14965;50.660;13.226;2023-03-23T01:42:47;11.50;99.90
27224;DHT22;14965;50.660;13.226;2023-03-23T01:45:26;11.50;99.90
27224;DHT22;14965;50.660;13.226;2023-03-23T01:47:59;11.50;99.90
27224;DHT22;14965;50.660;13.226;2023-03-23T01:50:30;11.50;99.90
27224;DHT22;14965;50.660;13.226;2023-03-23T01:53:05;11.50;99.90
27224;DHT22;14965;50.660;13.226;2023-03-23T01:55:34;11.60;99.90
27224;DHT22;14965;50.660;13.226;2023-03-23T01:58:02;11.60;99.90
27224;DHT22;14965;50.660;13.226;2023-03-23T02:00:29;11.60;99.90
27224;DHT22;14965;50.660;13.226;2023-03-23T02:02:55;11.60;99.90
27224;DHT22;14965;50.660;13.226;2023-03-23T02:05:26;11.60;99.90
27224;DHT22;14965;50.660;13.226;2023-03-23T02:07:57;11.60;99.90
27224;DHT22;14965;50.660;13.226;2023-03-23T02:10:26;11.60;99.90
27224;DHT22;14965;50.660;13.226;2023-03-23T02:12:52;11.60;99.90
27224;DHT22;14965;50.660;13.226;2023-03-23T02:15:19;11.60;99.90
27224;DHT22;14965;50.660;13.226;2023-03-23T02:17:50;11.60;99.90
27224;DHT22;14965;50.660;13.226;2023-03-23T02:20:42;11.60;99.90
27224;DHT22;14965;50.660;13.226;2023-03-23T02:23:50;11.60;99.90
27224;DHT22;14965;50.660;13.226;2023-03-23T02:26:35;11.60;99.90
27224;DHT22;14965;50.660;13.226;2023-03-23T02:32:51;11.60;99.90
27224;DHT22;14965;50.660;13.226;2023-03-23T02:35:38;11.60;99.90
27224;DHT22;14965;50.660;13.226;2023-03-23T02:38:11;11.60;99.90
27224;DHT22;14965;50.660;13.226;2023-03-23T02:40:44;11.60;99.90
27224;DHT22;14965;50.660;13.226;2023-03-23T02:43:15;11.50;99.90
27224;DHT22;14965;50.660;13.226;2023-03-23T02:45:45;11.50;99.90
27224;DHT22;14965;50.660;13.226;2023-03-23T02:48:16;11.50;99.90
27224;DHT22;14965;50.660;13.226;2023-03-23T02:50:48;11.50;99.90
27224;DHT22;14965;50.660;13.226;2023-03-23T02:53:20;11.50;99.90
27224;DHT22;14965;50.660;13.226;2023-03-23T02:55:50;11.50;99.90
27224;DHT22;14965;50.660;13.226;2023-03-23T02:58:19;11.40;99.90
27224;DHT22;14965;50.660;13.226;2023-03-23T03:01:10;11.40;99.90
27224;DHT22;14965;50.660;13.226;2023-03-23T03:03:57;11.40;99.90
27224;DHT22;14965;50.660;13.226;2023-03-23T03:06:30;11.40;99.90
27224;DHT22;14965;50.660;13.226;2023-03-23T03:09:04;11.30;99.90
27224;DHT22;14965;50.660;13.226;2023-03-23T03:11:36;11.30;99.90
27224;DHT22;14965;50.660;13.226;2023-03-23T03:14:11;11.30;99.90
27224;DHT22;14965;50.660;13.226;2023-03-23T03:16:45;11.30;99.90
27224;DHT22;14965;50.660;13.226;2023-03-23T03:19:20;11.30;99.90
27224;DHT22;14965;50.660;13.226;2023-03-23T03:21:51;11.20;99.90
27224;DHT22;14965;50.660;13.226;2023-03-23T03:24:20;11.20;99.90
27224;DHT22;14965;50.660;13.226;2023-03-23T03:26:51;11.20;99.90
27224;DHT22;14965;50.660;13.226;2023-03-23T03:29:22;11.20;99.90
27224;DHT22;14965;50.660;13.226;2023-03-23T03:31:52;11.20;99.90
27224;DHT22;14965;50.660;13.226;2023-03-23T03:34:23;11.10;99.90
27224;DHT22;14965;50.660;13.226;2023-03-23T03:36:52;11.10;99.90
27224;DHT22;14965;50.660;13.226;2023-03-23T03:39:21;11.20;99.90
27224;DHT22;14965;50.660;13.226;2023-03-23T03:41:47;11.20;99.90
27224;DHT22;14965;50.660;13.226;2023-03-23T03:44:28;11.20;99.90
27224;DHT22;14965;50.660;13.226;2023-03-23T03:46:54;11.20;99.90
27224;DHT22;14965;50.660;13.226;2023-03-23T03:49:20;11.30;99.90
27224;DHT22;14965;50.660;13.226;2023-03-23T03:51:47;11.20;99.90
27224;DHT22;14965;50.660;13.226;2023-03-23T03:54:13;11.30;99.90
27224;DHT22;14965;50.660;13.226;2023-03-23T03:56:39;11.30;99.90
27224;DHT22;14965;50.660;13.226;2023-03-23T03:59:06;11.30;99.90
27224;DHT22;14965;50.660;13.226;2023-03-23T04:01:32;11.30;99.90
27224;DHT22;14965;50.660;13.226;2023-03-23T04:03:58;11.30;99.90
27224;DHT22;14965;50.660;13.226;2023-03-23T04:06:24;11.30;99.90
27224;DHT22;14965;50.660;13.226;2023-03-23T04:08:52;11.40;99.90
27224;DHT22;14965;50.660;13.226;2023-03-23T04:11:18;11.40;99.90
27224;DHT22;14965;50.660;13.226;2023-03-23T04:13:44;11.40;99.90
27224;DHT22;14965;50.660;13.226;2023-03-23T04:16:10;11.50;99.90
27224;DHT22;14965;50.660;13.226;2023-03-23T04:18:35;11.40;99.90
27224;DHT22;14965;50.660;13.226;2023-03-23T04:21:03;11.40;99.90
27224;DHT22;14965;50.660;13.226;2023-03-23T04:23:30;11.40;99.90
27224;DHT22;14965;50.660;13.226;2023-03-23T04:25:58;11.40;99.90
27224;DHT22;14965;50.660;13.226;2023-03-23T04:28:25;11.40;99.90
27224;DHT22;14965;50.660;13.226;2023-03-23T04:30:52;11.40;99.90
27224;DHT22;14965;50.660;13.226;2023-03-23T04:33:20;11.30;99.90
27224;DHT22;14965;50.660;13.226;2023-03-23T04:35:49;11.30;99.90
27224;DHT22;14965;50.660;13.226;2023-03-23T04:38:16;11.30;99.90
27224;DHT22;14965;50.660;13.226;2023-03-23T04:40:43;11.30;99.90
27224;DHT22;14965;50.660;13.226;2023-03-23T04:43:11;11.20;99.90
27224;DHT22;14965;50.660;13.226;2023-03-23T04:45:37;11.30;99.90
27224;DHT22;14965;50.660;13.226;2023-03-23T04:48:03;11.20;99.90
27224;DHT22;14965;50.660;13.226;2023-03-23T04:50:31;11.20;99.90
27224;DHT22;14965;50.660;13.226;2023-03-23T04:52:58;11.20;99.90
27224;DHT22;14965;50.660;13.226;2023-03-23T04:55:25;11.10;99.90
27224;DHT22;14965;50.660;13.226;2023-03-23T04:57:52;11.10;99.90
27224;DHT22;14965;50.660;13.226;2023-03-23T05:00:20;11.10;99.90
27224;DHT22;14965;50.660;13.226;2023-03-23T05:02:46;11.10;99.90
27224;DHT22;14965;50.660;13.226;2023-03-23T05:05:13;11.10;99.90
27224;DHT22;14965;50.660;13.226;2023-03-23T05:07:40;11.10;99.90
27224;DHT22;14965;50.660;13.226;2023-03-23T05:10:08;11.10;99.90
27224;DHT22;14965;50.660;13.226;2023-03-23T05:12:36;11.10;99.90
27224;DHT22;14965;50.660;13.226;2023-03-23T05:15:03;11.10;99.90
27224;DHT22;14965;50.660;13.226;2023-03-23T05:17:31;11.10;99.90
27224;DHT22;14965;50.660;13.226;2023-03-23T05:20:02;11.10;99.90
27224;DHT22;14965;50.660;13.226;2023-03-23T05:22:30;11.20;99.90
27224;DHT22;14965;50.660;13.226;2023-03-23T05:24:56;11.10;99.90
27224;DHT22;14965;50.660;13.226;2023-03-23T05:27:22;11.10;99.90
27224;DHT22;14965;50.660;13.226;2023-03-23T05:29:48;11.20;99.90
27224;DHT22;14965;50.660;13.226;2023-03-23T05:32:14;11.20;99.90
27224;DHT22;14965;50.660;13.226;2023-03-23T05:34:42;11.20;99.90
27224;DHT22;14965;50.660;13.226;2023-03-23T05:37:09;11.20;99.90
27224;DHT22;14965;50.660;13.226;2023-03-23T05:39:35;11.20;99.90
27224;DHT22;14965;50.660;13.226;2023-03-23T05:42:02;11.10;99.90
27224;DHT22;14965;50.660;13.226;2023-03-23T05:44:28;11.20;99.90
27224;DHT22;14965;50.660;13.226;2023-03-23T05:46:54;11.20;99.90
27224;DHT22;14965;50.660;13.226;2023-03-23T05:49:20;11.20;99.90
27224;DHT22;14965;50.660;13.226;2023-03-23T05:51:48;11.20;99.90
27224;DHT22;14965;50.660;13.226;2023-03-23T05:54:14;11.20;99.90
27224;DHT22;14965;50.660;13.226;2023-03-23T05:56:40;11.20;99.90
27224;DHT22;14965;50.660;13.226;2023-03-23T05:59:06;11.20;99.90
27224;DHT22;14965;50.660;13.226;2023-03-23T06:01:32;11.20;99.90
27224;DHT22;14965;50.660;13.226;2023-03-23T06:03:58;11.20;99.90
27224;DHT22;14965;50.660;13.226;2023-03-23T06:06:24;11.20;99.90
27224;DHT22;14965;50.660;13.226;2023-03-23T06:08:53;11.20;99.90
27224;DHT22;14965;50.660;13.226;2023-03-23T06:11:19;11.20;99.90
27224;DHT22;14965;50.660;13.226;2023-03-23T06:13:45;11.30;99.90
27224;DHT22;14965;50.660;13.226;2023-03-23T06:16:11;11.30;99.90
27224;DHT22;14965;50.660;13.226;2023-03-23T06:18:37;11.30;99.90
27224;DHT22;14965;50.660;13.226;2023-03-23T06:21:03;11.50;99.90
27224;DHT22;14965;50.660;13.226;2023-03-23T06:23:29;11.50;99.90
27224;DHT22;14965;50.660;13.226;2023-03-23T06:26:06;11.60;99.90
27224;DHT22;14965;50.660;13.226;2023-03-23T06:28:34;11.60;99.90
27224;DHT22;14965;50.660;13.226;2023-03-23T06:31:00;11.70;99.90
27224;DHT22;14965;50.660;13.226;2023-03-23T06:33:27;11.70;99.90
27224;DHT22;14965;50.660;13.226;2023-03-23T06:35:53;11.70;99.90
27224;DHT22;14965;50.660;13.226;2023-03-23T06:38:19;11.70;99.90
27224;DHT22;14965;50.660;13.226;2023-03-23T06:40:45;11.70;99.90
27224;DHT22;14965;50.660;13.226;2023-03-23T06:43:13;11.70;99.90
27224;DHT22;14965;50.660;13.226;2023-03-23T06:45:39;11.70;99.90
27224;DHT22;14965;50.660;13.226;2023-03-23T06:48:05;11.70;99.90
27224;DHT22;14965;50.660;13.226;2023-03-23T06:50:31;11.90;99.90
27224;DHT22;14965;50.660;13.226;2023-03-23T06:52:58;11.80;99.90
27224;DHT22;14965;50.660;13.226;2023-03-23T06:55:24;11.80;99.90
27224;DHT22;14965;50.660;13.226;2023-03-23T06:57:55;11.90;99.90
27224;DHT22;14965;50.660;13.226;2023-03-23T07:00:22;12.00;99.90
27224;DHT22;14965;50.660;13.226;2023-03-23T07:02:49;12.00;99.90
27224;DHT22;14965;50.660;13.226;2023-03-23T07:05:15;12.20;99.90
27224;DHT22;14965;50.660;13.226;2023-03-23T07:07:41;12.30;99.90
27224;DHT22;14965;50.660;13.226;2023-03-23T07:10:17;12.40;99.90
27224;DHT22;14965;50.660;13.226;2023-03-23T07:12:43;12.50;99.90
27224;DHT22;14965;50.660;13.226;2023-03-23T07:15:10;12.60;99.90
27224;DHT22;14965;50.660;13.226;2023-03-23T07:17:38;12.70;99.90
27224;DHT22;14965;50.660;13.226;2023-03-23T07:20:05;12.70;99.90
27224;DHT22;14965;50.660;13.226;2023-03-23T07:22:32;12.70;99.90
27224;DHT22;14965;50.660;13.226;2023-03-23T07:24:59;12.70;99.90
27224;DHT22;14965;50.660;13.226;2023-03-23T07:27:25;12.80;99.90
27224;DHT22;14965;50.660;13.226;2023-03-23T07:29:51;12.70;99.90
27224;DHT22;14965;50.660;13.226;2023-03-23T07:32:17;12.70;99.90
27224;DHT22;14965;50.660;13.226;2023-03-23T07:34:47;12.60;99.90
27224;DHT22;14965;50.660;13.226;2023-03-23T07:37:14;12.70;99.90
27224;DHT22;14965;50.660;13.226;2023-03-23T07:39:40;12.70;99.90
27224;DHT22;14965;50.660;13.226;2023-03-23T07:42:10;12.70;99.90
27224;DHT22;14965;50.660;13.226;2023-03-23T07:44:37;12.70;99.90
27224;DHT22;14965;50.660;13.226;2023-03-23T07:47:06;12.60;99.90
27224;DHT22;14965;50.660;13.226;2023-03-23T07:49:32;12.60;99.90
27224;DHT22;14965;50.660;13.226;2023-03-23T07:52:00;12.60;99.90
27224;DHT22;14965;50.660;13.226;2023-03-23T07:54:26;12.60;99.90
27224;DHT22;14965;50.660;13.226;2023-03-23T07:56:52;12.60;99.90
27224;DHT22;14965;50.660;13.226;2023-03-23T07:59:18;12.60;99.90
27224;DHT22;14965;50.660;13.226;2023-03-23T08:01:44;12.70;99.90
27224;DHT22;14965;50.660;13.226;2023-03-23T08:04:10;12.70;99.90
27224;DHT22;14965;50.660;13.226;2023-03-23T08:06:36;12.80;99.90
27224;DHT22;14965;50.660;13.226;2023-03-23T08:09:04;12.80;99.90
27224;DHT22;14965;50.660;13.226;2023-03-23T08:11:30;12.80;99.90
27224;DHT22;14965;50.660;13.226;2023-03-23T08:13:56;12.90;99.90
27224;DHT22;14965;50.660;13.226;2023-03-23T08:16:22;13.00;99.90
27224;DHT22;14965;50.660;13.226;2023-03-23T08:18:48;13.10;99.90
27224;DHT22;14965;50.660;13.226;2023-03-23T08:21:14;13.20;99.90
27224;DHT22;14965;50.660;13.226;2023-03-23T08:23:41;13.30;99.90
27224;DHT22;14965;50.660;13.226;2023-03-23T08:26:08;13.40;99.90
27224;DHT22;14965;50.660;13.226;2023-03-23T08:28:35;13.40;99.90
27224;DHT22;14965;50.660;13.226;2023-03-23T08:31:06;13.40;99.90
27224;DHT22;14965;50.660;13.226;2023-03-23T08:33:47;13.50;99.90
27224;DHT22;14965;50.660;13.226;2023-03-23T08:36:13;13.40;99.90
27224;DHT22;14965;50.660;13.226;2023-03-23T08:38:39;13.40;99.90
27224;DHT22;14965;50.660;13.226;2023-03-23T08:41:08;13.40;99.90
27224;DHT22;14965;50.660;13.226;2023-03-23T08:43:35;13.40;99.90
27224;DHT22;14965;50.660;13.226;2023-03-23T08:46:06;13.40;99.90
27224;DHT22;14965;50.660;13.226;2023-03-23T08:48:33;13.40;99.90
27224;DHT22;14965;50.660;13.226;2023-03-23T08:54:39;13.30;99.90
27224;DHT22;14965;50.660;13.226;2023-03-23T08:57:44;13.20;99.90
27224;DHT22;14965;50.660;13.226;2023-03-23T09:00:20;13.10;99.90
27224;DHT22;14965;50.660;13.226;2023-03-23T09:02:58;13.30;99.90
27224;DHT22;14965;50.660;13.226;2023-03-23T09:05:47;13.40;99.90
27224;DHT22;14965;50.660;13.226;2023-03-23T09:08:21;13.50;99.90
27224;DHT22;14965;50.660;13.226;2023-03-23T09:17:43;13.00;99.90
27224;DHT22;14965;50.660;13.226;2023-03-23T09:20:12;13.10;99.90
27224;DHT22;14965;50.660;13.226;2023-03-23T09:22:42;13.00;99.90
27224;DHT22;14965;50.660;13.226;2023-03-23T09:25:12;12.80;99.90
27224;DHT22;14965;50.660;13.226;2023-03-23T09:27:39;12.70;99.90
27224;DHT22;14965;50.660;13.226;2023-03-23T09:30:08;12.60;99.90
27224;DHT22;14965;50.660;13.226;2023-03-23T09:32:37;12.60;99.90
27224;DHT22;14965;50.660;13.226;2023-03-23T09:35:07;12.60;99.90
27224;DHT22;14965;50.660;13.226;2023-03-23T09:37:34;12.60;99.90
27224;DHT22;14965;50.660;13.226;2023-03-23T09:40:00;12.60;99.90
27224;DHT22;14965;50.660;13.226;2023-03-23T09:42:39;12.70;99.90
27224;DHT22;14965;50.660;13.226;2023-03-23T09:45:21;12.70;99.90
27224;DHT22;14965;50.660;13.226;2023-03-23T09:48:08;12.80;99.90
27224;DHT22;14965;50.660;13.226;2023-03-23T09:50:57;12.80;99.90
27224;DHT22;14965;50.660;13.226;2023-03-23T09:53:29;12.90;99.90
27224;DHT22;14965;50.660;13.226;2023-03-23T09:55:58;13.00;99.90
27224;DHT22;14965;50.660;13.226;2023-03-23T09:58:28;13.10;99.90
27224;DHT22;14965;50.660;13.226;2023-03-23T10:01:04;13.20;99.90
27224;DHT22;14965;50.660;13.226;2023-03-23T10:03:37;13.40;99.90
27224;DHT22;14965;50.660;13.226;2023-03-23T10:06:09;13.50;99.90
27224;DHT22;14965;50.660;13.226;2023-03-23T10:08:39;13.50;99.90
27224;DHT22;14965;50.660;13.226;2023-03-23T10:11:12;13.50;99.90
27224;DHT22;14965;50.660;13.226;2023-03-23T10:13:57;13.40;99.90
27224;DHT22;14965;50.660;13.226;2023-03-23T10:16:36;13.40;99.90
27224;DHT22;14965;50.660;13.226;2023-03-23T10:19:11;13.40;99.90
27224;DHT22;14965;50.660;13.226;2023-03-23T10:21:48;13.30;99.90
27224;DHT22;14965;50.660;13.226;2023-03-23T10:24:19;13.30;99.90
27224;DHT22;14965;50.660;13.226;2023-03-23T10:26:54;13.30;99.90
27224;DHT22;14965;50.660;13.226;2023-03-23T10:29:31;13.20;99.90
27224;DHT22;14965;50.660;13.226;2023-03-23T10:32:09;13.20;99.90
27224;DHT22;14965;50.660;13.226;2023-03-23T10:34:42;13.20;99.90
27224;DHT22;14965;50.660;13.226;2023-03-23T10:37:16;13.20;99.90
27224;DHT22;14965;50.660;13.226;2023-03-23T10:39:49;13.10;99.90
27224;DHT22;14965;50.660;13.226;2023-03-23T10:42:22;13.20;99.90
27224;DHT22;14965;50.660;13.226;2023-03-23T10:44:50;13.30;99.90
27224;DHT22;14965;50.660;13.226;2023-03-23T10:47:16;13.30;99.90
27224;DHT22;14965;50.660;13.226;2023-03-23T10:49:45;13.20;99.90
27224;DHT22;14965;50.660;13.226;2023-03-23T10:52:26;13.30;99.90
27224;DHT22;14965;50.660;13.226;2023-03-23T10:54:58;13.40;99.90
27224;DHT22;14965;50.660;13.226;2023-03-23T10:57:32;13.40;99.90
27224;DHT22;14965;50.660;13.226;2023-03-23T11:00:01;13.30;99.90
27224;DHT22;14965;50.660;13.226;2023-03-23T11:02:36;13.40;99.90
27224;DHT22;14965;50.660;13.226;2023-03-23T11:05:12;13.40;99.90
27224;DHT22;14965;50.660;13.226;2023-03-23T11:07:54;13.40;99.90
27224;DHT22;14965;50.660;13.226;2023-03-23T11:10:25;13.40;99.90
27224;DHT22;14965;50.660;13.226;2023-03-23T11:12:53;13.40;99.90
27224;DHT22;14965;50.660;13.226;2023-03-23T11:15:31;13.40;99.90
27224;DHT22;14965;50.660;13.226;2023-03-23T11:18:01;13.40;99.90
27224;DHT22;14965;50.660;13.226;2023-03-23T11:20:34;13.40;99.90
27224;DHT22;14965;50.660;13.226;2023-03-23T11:23:08;13.30;99.90
27224;DHT22;14965;50.660;13.226;2023-03-23T11:25:51;13.20;99.90
27224;DHT22;14965;50.660;13.226;2023-03-23T11:28:21;13.10;99.90
27224;DHT22;14965;50.660;13.226;2023-03-23T11:30:47;13.00;99.90
27224;DHT22;14965;50.660;13.226;2023-03-23T11:33:14;12.90;99.90
27224;DHT22;14965;50.660;13.226;2023-03-23T11:35:43;12.80;99.90
27224;DHT22;14965;50.660;13.226;2023-03-23T11:38:17;12.80;99.90
27224;DHT22;14965;50.660;13.226;2023-03-23T11:40:49;12.80;99.90
27224;DHT22;14965;50.660;13.226;2023-03-23T11:43:20;12.80;99.90
27224;DHT22;14965;50.660;13.226;2023-03-23T11:45:50;12.80;99.90
27224;DHT22;14965;50.660;13.226;2023-03-23T11:48:28;12.90;99.90
27224;DHT22;14965;50.660;13.226;2023-03-23T11:51:01;13.00;99.90
27224;DHT22;14965;50.660;13.226;2023-03-23T11:53:39;13.00;99.90
27224;DHT22;14965;50.660;13.226;2023-03-23T11:56:17;13.10;99.90
27224;DHT22;14965;50.660;13.226;2023-03-23T11:58:48;13.10;99.90
27224;DHT22;14965;50.660;13.226;2023-03-23T12:01:23;13.20;99.90
27224;DHT22;14965;50.660;13.226;2023-03-23T12:07:26;13.20;99.90
27224;DHT22;14965;50.660;13.226;2023-03-23T12:10:26;13.20;99.90
27224;DHT22;14965;50.660;13.226;2023-03-23T12:13:04;13.30;99.90
27224;DHT22;14965;50.660;13.226;2023-03-23T12:15:49;13.30;99.90
27224;DHT22;14965;50.660;13.226;2023-03-23T12:18:31;13.20;99.90
27224;DHT22;14965;50.660;13.226;2023-03-23T12:21:11;13.20;99.90
27224;DHT22;14965;50.660;13.226;2023-03-23T12:23:48;13.10;99.90
27224;DHT22;14965;50.660;13.226;2023-03-23T12:26:23;13.10;99.90
27224;DHT22;14965;50.660;13.226;2023-03-23T12:29:19;13.00;99.90
27224;DHT22;14965;50.660;13.226;2023-03-23T12:32:28;13.20;99.90
27224;DHT22;14965;50.660;13.226;2023-03-23T12:35:14;13.20;99.90
27224;DHT22;14965;50.660;13.226;2023-03-23T12:37:59;13.40;99.90
27224;DHT22;14965;50.660;13.226;2023-03-23T12:40:44;13.50;99.90
27224;DHT22;14965;50.660;13.226;2023-03-23T12:43:26;13.50;99.90
27224;DHT22;14965;50.660;13.226;2023-03-23T12:49:02;13.50;99.90
27224;DHT22;14965;50.660;13.226;2023-03-23T12:51:35;13.50;99.90
27224;DHT22;14965;50.660;13.226;2023-03-23T12:54:18;13.50;99.90
27224;DHT22;14965;50.660;13.226;2023-03-23T12:56:53;13.40;99.90
27224;DHT22;14965;50.660;13.226;2023-03-23T12:59:32;13.30;99.90
27224;DHT22;14965;50.660;13.226;2023-03-23T13:02:12;13.30;99.90
27224;DHT22;14965;50.660;13.226;2023-03-23T13:04:47;13.20;99.90
27224;DHT22;14965;50.660;13.226;2023-03-23T13:07:22;13.30;99.90
27224;DHT22;14965;50.660;13.226;2023-03-23T13:09:58;13.40;99.90
27224;DHT22;14965;50.660;13.226;2023-03-23T13:12:28;13.40;99.90
27224;DHT22;14965;50.660;13.226;2023-03-23T13:15:06;13.50;99.90
27224;DHT22;14965;50.660;13.226;2023-03-23T13:17:48;13.70;99.90
27224;DHT22;14965;50.660;13.226;2023-03-23T13:20:34;13.80;99.90
27224;DHT22;14965;50.660;13.226;2023-03-23T13:23:10;13.90;99.90
27224;DHT22;14965;50.660;13.226;2023-03-23T13:25:59;13.80;99.90
27224;DHT22;14965;50.660;13.226;2023-03-23T13:28:28;13.60;99.90
27224;DHT22;14965;50.660;13.226;2023-03-23T13:30:59;13.60;99.90
27224;DHT22;14965;50.660;13.226;2023-03-23T13:33:33;13.60;99.90
27224;DHT22;14965;50.660;13.226;2023-03-23T13:36:12;13.50;99.90
27224;DHT22;14965;50.660;13.226;2023-03-23T13:38:44;13.50;99.90
27224;DHT22;14965;50.660;13.226;2023-03-23T13:41:14;13.20;99.90
27224;DHT22;14965;50.660;13.226;2023-03-23T13:43:42;13.10;99.90
27224;DHT22;14965;50.660;13.226;2023-03-23T13:46:23;12.90;99.90
27224;DHT22;14965;50.660;13.226;2023-03-23T13:49:05;12.90;99.90
27224;DHT22;14965;50.660;13.226;2023-03-23T13:51:52;12.80;99.90
27224;DHT22;14965;50.660;13.226;2023-03-23T13:54:30;12.80;99.90
27224;DHT22;14965;50.660;13.226;2023-03-23T13:57:00;12.70;99.90
27224;DHT22;14965;50.660;13.226;2023-03-23T13:59:45;12.70;99.90
27224;DHT22;14965;50.660;13.226;2023-03-23T14:02:35;12.70;99.90
27224;DHT22;14965;50.660;13.226;2023-03-23T14:07:59;12.70;99.90
27224;DHT22;14965;50.660;13.226;2023-03-23T14:10:38;12.70;99.90
27224;DHT22;14965;50.660;13.226;2023-03-23T14:13:14;12.80;99.90
27224;DHT22;14965;50.660;13.226;2023-03-23T14:15:45;12.90;99.90
27224;DHT22;14965;50.660;13.226;2023-03-23T14:18:27;12.90;99.90
27224;DHT22;14965;50.660;13.226;2023-03-23T14:20:57;13.00;99.90
27224;DHT22;14965;50.660;13.226;2023-03-23T14:23:24;13.00;99.90
27224;DHT22;14965;50.660;13.226;2023-03-23T14:25:55;13.10;99.90
27224;DHT22;14965;50.660;13.226;2023-03-23T14:28:27;13.20;99.90
27224;DHT22;14965;50.660;13.226;2023-03-23T14:30:54;13.20;99.90
27224;DHT22;14965;50.660;13.226;2023-03-23T14:33:20;13.20;99.90
27224;DHT22;14965;50.660;13.226;2023-03-23T14:35:51;13.20;99.90
27224;DHT22;14965;50.660;13.226;2023-03-23T14:38:20;13.20;99.90
27224;DHT22;14965;50.660;13.226;2023-03-23T14:40:48;13.20;99.90
27224;DHT22;14965;50.660;13.226;2023-03-23T14:43:17;13.20;99.90
27224;DHT22;14965;50.660;13.226;2023-03-23T14:45:52;13.20;99.90
27224;DHT22;14965;50.660;13.226;2023-03-23T14:48:20;13.10;99.90
27224;DHT22;14965;50.660;13.226;2023-03-23T14:50:51;12.90;99.90
27224;DHT22;14965;50.660;13.226;2023-03-23T14:53:21;12.90;99.90
27224;DHT22;14965;50.660;13.226;2023-03-23T14:55:50;12.80;99.90
27224;DHT22;14965;50.660;13.226;2023-03-23T14:58:19;12.90;99.90
27224;DHT22;14965;50.660;13.226;2023-03-23T15:00:50;12.90;99.90
27224;DHT22;14965;50.660;13.226;2023-03-23T15:03:21;13.00;99.90
27224;DHT22;14965;50.660;13.226;2023-03-23T15:05:52;13.00;99.90
27224;DHT22;14965;50.660;13.226;2023-03-23T15:08:24;13.00;99.90
27224;DHT22;14965;50.660;13.226;2023-03-23T15:10:54;12.90;99.90
27224;DHT22;14965;50.660;13.226;2023-03-23T15:13:23;12.90;99.90
27224;DHT22;14965;50.660;13.226;2023-03-23T15:15:49;12.90;99.90
27224;DHT22;14965;50.660;13.226;2023-03-23T15:18:34;12.90;99.90
27224;DHT22;14965;50.660;13.226;2023-03-23T15:21:20;12.80;99.90
27224;DHT22;14965;50.660;13.226;2023-03-23T15:23:49;12.70;99.90
27224;DHT22;14965;50.660;13.226;2023-03-23T15:26:31;12.70;99.90
27224;DHT22;14965;50.660;13.226;2023-03-23T15:29:17;12.70;99.90
27224;DHT22;14965;50.660;13.226;2023-03-23T15:31:46;12.80;99.90
27224;DHT22;14965;50.660;13.226;2023-03-23T15:34:35;12.70;99.90
27224;DHT22;14965;50.660;13.226;2023-03-23T15:37:05;12.70;99.90
27224;DHT22;14965;50.660;13.226;2023-03-23T15:39:43;12.70;99.90
27224;DHT22;14965;50.660;13.226;2023-03-23T15:42:21;12.60;99.90
27224;DHT22;14965;50.660;13.226;2023-03-23T15:44:56;12.50;99.90
27224;DHT22;14965;50.660;13.226;2023-03-23T15:47:35;12.50;99.90
27224;DHT22;14965;50.660;13.226;2023-03-23T15:50:04;12.50;99.90
27224;DHT22;14965;50.660;13.226;2023-03-23T15:52:36;12.50;99.90
27224;DHT22;14965;50.660;13.226;2023-03-23T15:55:02;12.40;99.90
27224;DHT22;14965;50.660;13.226;2023-03-23T15:57:28;12.40;99.90
27224;DHT22;14965;50.660;13.226;2023-03-23T15:59:54;12.30;99.90
27224;DHT22;14965;50.660;13.226;2023-03-23T16:02:22;12.30;99.90